Time;durP1;ratioP1;P1;durP2;ratioP2;P2;SDS_P1;SDS_P2;PMS_P1;PMS_P2;Temp;Humidity;BMP_temperature;BMP_pressure;BME280_temperature;BME280_humidity;BME280_pressure;Samples;Min_cycle;Max_cycle;Signal;HPM_P1;HPM_P2
2023/01/20 08:28:35;;;;;;;9.20;5.83;;;-3.10;99.90;;;;;;5132271;27;20273;-75
2023/01/20 09:08:54;;;;;;;7.17;5.17;;;-2.80;99.90;;;;;;5131982;27;20267;-75
2023/01/20 09:13:31;;;;;;;12.67;6.67;;;-2.70;99.90;;;;;;5132378;27;20263;-76
2023/01/20 09:47:26;;;;;;;9.90;6.70;;;-3.00;99.90;;;;;;5131804;27;20285;-76
2023/01/20 09:54:53;;;;;;;9.90;6.93;;;-2.90;99.90;;;;;;5131989;27;20268;-77
2023/01/20 09:58:50;;;;;;;9.20;5.33;;;-2.70;99.90;;;;;;5091143;27;20757;-76
2023/01/20 10:02:49;;;;;;;12.93;7.93;;;-2.60;99.90;;;;;;5152807;27;20735;-76
2023/01/20 10:06:58;;;;;;;9.40;6.87;;;-2.60;99.90;;;;;;5132162;27;20282;-77
2023/01/20 10:11:04;;;;;;;10.93;8.30;;;-2.60;99.90;;;;;;5132181;27;20291;-77
2023/01/20 10:43:58;;;;;;;8.57;5.20;;;-2.70;99.90;;;;;;5133295;27;20271;-77
2023/01/20 10:49:25;;;;;;;9.27;6.10;;;-2.50;99.90;;;;;;5111895;27;20548;-78
2023/01/20 10:53:46;;;;;;;9.07;6.00;;;-2.40;99.90;;;;;;5132631;27;20267;-78
2023/01/20 10:58:03;;;;;;;9.03;5.77;;;-2.40;99.90;;;;;;5135054;27;20267;-78
2023/01/20 11:02:33;;;;;;;11.10;6.33;;;-2.60;99.90;;;;;;5133532;27;20285;-78
2023/01/20 11:06:30;;;;;;;12.07;6.37;;;-2.30;99.90;;;;;;5133689;27;20762;-78
2023/01/20 11:10:16;;;;;;;9.20;6.33;;;-2.50;99.90;;;;;;5138576;27;20665;-79
2023/01/20 11:14:11;;;;;;;9.63;6.17;;;-2.50;99.90;;;;;;5137784;27;20275;-80
2023/01/20 11:18:12;;;;;;;6.43;5.30;;;-2.50;99.90;;;;;;5136093;27;20273;-79
2023/01/20 11:22:21;;;;;;;9.73;6.43;;;-2.40;99.90;;;;;;5137378;27;20282;-79
2023/01/20 11:26:23;;;;;;;13.33;7.80;;;-2.20;99.90;;;;;;5140504;27;20275;-80
2023/01/20 11:28:52;;;;;;;9.50;6.07;;;-2.10;99.90;;;;;;5140136;28;20399;-80
2023/01/20 11:31:18;;;;;;;10.20;7.20;;;-2.10;99.90;;;;;;5141408;28;20508;-80
2023/01/20 11:33:58;;;;;;;11.50;6.90;;;-2.00;99.90;;;;;;5139987;28;20956;-81
2023/01/20 11:36:25;;;;;;;9.30;6.07;;;-2.10;99.90;;;;;;5139622;28;20777;-79
2023/01/20 11:38:52;;;;;;;11.07;7.47;;;-2.00;99.90;;;;;;5135036;28;20421;-79
2023/01/20 11:41:25;;;;;;;11.90;7.70;;;-1.90;99.90;;;;;;5123469;28;20438;-80
2023/01/20 11:43:55;;;;;;;7.87;6.17;;;-1.90;99.90;;;;;;5114639;28;22317;-80
2023/01/20 11:46:22;;;;;;;8.07;6.83;;;-1.80;99.90;;;;;;5138081;28;20901;-82
2023/01/20 11:51:20;;;;;;;8.50;6.10;;;-1.90;99.90;;;;;;5140273;27;20274;-82
2023/01/20 11:54:40;;;;;;;36.77;24.40;;;-1.80;99.90;;;;;;5118996;27;20348;-81
2023/01/20 11:58:56;;;;;;;10.13;7.37;;;-1.90;99.90;;;;;;5138888;27;20614;-82
2023/01/20 12:02:22;;;;;;;17.87;9.83;;;-1.90;99.90;;;;;;5127364;27;20278;-79
2023/01/20 12:07:17;;;;;;;10.80;9.23;;;-1.80;99.90;;;;;;5140581;27;20749;-82
2023/01/20 12:09:49;;;;;;;16.03;8.63;;;-1.70;99.90;;;;;;5116274;28;20445;-84
2023/01/20 12:12:27;;;;;;;17.10;10.40;;;-1.80;99.90;;;;;;5102705;28;20438;-84
2023/01/20 12:24:08;;;;;;;14.23;9.60;;;-1.80;99.90;;;;;;5100723;28;20558;-86
2023/01/20 12:28:32;;;;;;;14.47;8.80;;;-1.70;99.90;;;;;;5121096;27;20670;-85
2023/01/20 12:31:47;;;;;;;16.47;10.17;;;-1.70;99.90;;;;;;5100394;28;20356;-85
2023/01/20 12:36:07;;;;;;;14.90;10.37;;;-1.80;99.90;;;;;;5131628;27;20738;-84
2023/01/20 12:40:15;;;;;;;15.93;8.70;;;-1.60;99.90;;;;;;5124239;27;20295;-82
2023/01/20 12:44:12;;;;;;;13.57;9.37;;;-1.70;99.90;;;;;;5138660;27;20278;-81
2023/01/20 12:47:56;;;;;;;17.93;10.87;;;-1.60;99.90;;;;;;5135364;27;20301;-81
2023/01/20 12:52:03;;;;;;;11.63;8.50;;;-1.60;99.90;;;;;;5117033;27;20924;-81
2023/01/20 12:56:08;;;;;;;23.47;13.40;;;-1.50;99.90;;;;;;5110559;27;20710;-81
2023/01/20 12:59:40;;;;;;;18.50;11.37;;;-1.50;99.90;;;;;;5119128;27;20544;-81
2023/01/20 13:02:14;;;;;;;15.93;9.37;;;-1.40;99.90;;;;;;5116411;28;20401;-81
2023/01/20 13:06:12;;;;;;;15.07;10.73;;;-1.50;99.90;;;;;;5116934;27;20609;-81
2023/01/20 13:10:47;;;;;;;32.37;18.13;;;-1.50;99.90;;;;;;5097964;28;20286;-82
2023/01/20 13:15:21;;;;;;;21.60;12.43;;;-1.50;99.90;;;;;;5137466;27;20273;-82
2023/01/20 13:19:20;;;;;;;11.87;8.10;;;-1.50;99.90;;;;;;5137657;27;20286;-82
2023/01/20 13:22:38;;;;;;;17.87;12.10;;;-1.50;99.90;;;;;;5116784;27;20716;-82
2023/01/20 13:25:06;;;;;;;25.70;16.00;;;-1.40;99.90;;;;;;5075940;28;20460;-82
2023/01/20 13:27:34;;;;;;;28.80;19.03;;;-1.30;99.90;;;;;;5074678;28;20265;-82
2023/01/20 13:30:03;;;;;;;19.03;13.43;;;-1.20;99.90;;;;;;5058155;28;20483;-81
2023/01/20 13:32:36;;;;;;;25.07;15.60;;;-1.20;99.90;;;;;;5054093;28;20519;-82
2023/01/20 13:35:24;;;;;;;12.17;9.77;;;-1.10;99.90;;;;;;5054806;28;20424;-82
2023/01/20 13:37:55;;;;;;;16.63;12.77;;;-1.10;99.90;;;;;;5056401;28;20408;-82
2023/01/20 13:40:36;;;;;;;11.57;9.47;;;-1.10;99.90;;;;;;5055679;28;20462;-82
2023/01/20 13:43:20;;;;;;;17.53;11.37;;;-1.20;99.90;;;;;;5037261;28;20408;-82
2023/01/20 13:45:46;;;;;;;17.70;12.50;;;-1.30;99.90;;;;;;5035692;28;20568;-82
2023/01/20 13:48:12;;;;;;;15.53;11.70;;;-1.30;99.90;;;;;;5050252;28;20456;-82
2023/01/20 13:50:39;;;;;;;16.60;12.97;;;-1.20;99.90;;;;;;5054759;28;20208;-82
2023/01/20 13:53:26;;;;;;;19.87;14.70;;;-1.10;99.90;;;;;;5054463;28;20193;-81
2023/01/20 13:55:54;;;;;;;17.03;12.53;;;-1.10;99.90;;;;;;5054334;28;20415;-82
2023/01/20 13:58:33;;;;;;;12.90;10.37;;;-1.00;99.90;;;;;;5055356;28;20428;-82
2023/01/20 14:01:00;;;;;;;25.47;16.87;;;-1.10;99.90;;;;;;5034170;28;20551;-81
2023/01/20 14:03:37;;;;;;;17.13;11.80;;;-1.20;99.90;;;;;;5036601;28;20508;-82
2023/01/20 14:06:18;;;;;;;14.13;10.47;;;-1.00;99.90;;;;;;5041895;28;20977;-81
2023/01/20 14:08:47;;;;;;;17.57;11.50;;;-1.10;99.90;;;;;;5056523;28;20446;-81
